Time;durP1;ratioP1;P1;durP2;ratioP2;P2;SDS_P1;SDS_P2;PMS_P1;PMS_P2;Temp;Humidity;BMP_temperature;BMP_pressure;BME280_temperature;BME280_humidity;BME280_pressure;Samples;Min_cycle;Max_cycle;Signal;HPM_P1;HPM_P2
2023/04/15 00:01:57;;;;;;;7.85;2.78;;;;;;;10.56;58.12;94480.94;5009869;28;20591;-82
2023/04/15 00:04:22;;;;;;;10.38;2.78;;;;;;;10.23;57.77;94454.41;4998022;28;20025;-82
2023/04/15 00:06:52;;;;;;;7.00;2.88;;;;;;;10.29;58.54;94484.31;5012959;28;20064;-82
2023/04/15 00:09:18;;;;;;;7.95;3.40;;;;;;;9.92;58.70;94488.47;5012446;28;20040;-82
2023/04/15 00:11:45;;;;;;;17.73;8.15;;;;;;;9.70;58.17;94520.00;5012418;28;20033;-82
2023/04/15 00:14:11;;;;;;;16.48;7.53;;;;;;;9.56;58.35;94476.75;4996256;28;20048;-82
2023/04/15 00:16:37;;;;;;;21.73;8.27;;;;;;;9.94;57.18;94498.78;5019731;28;20037;-82
2023/04/15 00:19:02;;;;;;;15.18;8.18;;;;;;;10.21;57.94;94512.22;5010139;28;20495;-82
2023/04/15 00:21:28;;;;;;;15.32;8.15;;;;;;;10.32;58.01;94518.94;5010014;28;20113;-82
2023/04/15 00:23:54;;;;;;;17.70;8.30;;;;;;;9.90;58.17;94450.91;4992498;28;20034;-83
2023/04/15 00:26:19;;;;;;;19.00;8.60;;;;;;;10.13;57.13;94470.44;4992782;28;20033;-82
2023/04/15 00:28:45;;;;;;;15.23;8.45;;;;;;;9.91;56.71;94438.47;4992425;28;20037;-82
2023/04/15 00:31:11;;;;;;;14.82;7.60;;;;;;;8.36;56.19;94193.16;5010602;28;20535;-82
2023/04/15 00:33:36;;;;;;;14.88;7.95;;;;;;;10.26;56.48;94469.75;5010017;28;20133;-82
2023/04/15 00:36:03;;;;;;;15.43;7.90;;;;;;;10.51;57.83;94507.56;5009794;28;20042;-82
2023/04/15 00:38:28;;;;;;;14.80;7.45;;;;;;;9.86;57.69;94404.88;4994227;28;20103;-82
2023/04/15 00:40:55;;;;;;;18.02;7.38;;;;;;;10.03;57.22;94423.69;5027461;28;20539;-82
2023/04/15 00:43:20;;;;;;;13.43;6.43;;;;;;;10.18;57.16;94512.78;4992840;28;20034;-82
2023/04/15 00:45:46;;;;;;;15.63;6.75;;;;;;;10.11;57.18;94477.09;4997773;28;20435;-82
2023/04/15 00:48:12;;;;;;;12.18;6.30;;;;;;;10.29;56.86;94495.69;5011957;28;20603;-82
2023/04/15 00:50:37;;;;;;;13.15;6.03;;;;;;;10.50;56.69;94527.19;5022536;28;20029;-82
2023/04/15 00:53:03;;;;;;;16.05;6.45;;;;;;;10.43;56.98;94499.19;5019482;28;20061;-82
2023/04/15 00:55:28;;;;;;;15.43;6.78;;;;;;;10.42;56.97;94488.88;5029352;28;20115;-82
2023/04/15 00:57:55;;;;;;;16.13;5.93;;;;;;;10.56;57.03;94513.56;5030012;28;20096;-82
2023/04/15 01:00:20;;;;;;;17.70;6.00;;;;;;;10.26;56.84;94463.66;5011585;28;20048;-82
2023/04/15 01:02:46;;;;;;;13.60;5.82;;;;;;;10.61;56.80;94518.78;5011845;28;20041;-82
2023/04/15 01:05:11;;;;;;;11.23;5.25;;;;;;;10.26;58.21;94490.94;5011505;28;20065;-82
2023/04/15 01:07:37;;;;;;;10.60;4.15;;;;;;;9.94;59.27;94453.75;5011529;28;20111;-82
2023/04/15 01:10:03;;;;;;;7.38;4.07;;;;;;;10.37;59.47;94518.91;4993697;28;20046;-82
2023/04/15 01:12:32;;;;;;;7.50;3.83;;;;;;;10.25;59.40;94496.53;4992153;28;20030;-82
2023/04/15 01:14:58;;;;;;;9.70;3.47;;;;;;;10.18;59.20;94490.81;4997615;28;20459;-82
2023/04/15 01:17:24;;;;;;;7.68;3.10;;;;;;;10.35;58.79;94529.00;5033331;28;20053;-82
2023/04/15 01:19:51;;;;;;;6.97;3.47;;;;;;;9.82;59.00;94437.53;5033191;28;20041;-82
2023/04/15 01:22:16;;;;;;;13.57;3.65;;;;;;;10.27;59.06;94510.28;5033045;28;20044;-83
2023/04/15 01:24:54;;;;;;;6.82;3.72;;;;;;;9.95;59.03;94450.03;5033316;28;20026;-82
2023/04/15 01:27:20;;;;;;;8.77;3.85;;;;;;;9.43;58.50;94353.88;5023533;28;20113;-82
2023/04/15 01:29:46;;;;;;;8.10;3.50;;;;;;;10.22;58.57;94462.69;4995271;28;20045;-82
2023/04/15 01:32:11;;;;;;;10.73;4.20;;;;;;;10.25;58.51;94462.88;5013429;28;20038;-82
2023/04/15 01:34:37;;;;;;;7.75;3.67;;;;;;;10.02;59.04;94434.56;5013489;28;20088;-82
2023/04/15 01:37:02;;;;;;;11.80;4.05;;;;;;;10.25;59.25;94481.41;5028778;28;20041;-82
2023/04/15 01:39:28;;;;;;;9.68;4.43;;;;;;;10.27;58.69;94502.34;4997773;28;20042;-82
2023/04/15 01:41:53;;;;;;;9.50;4.47;;;;;;;10.30;58.63;94510.50;5012989;28;20475;-82
2023/04/15 01:44:18;;;;;;;9.23;4.13;;;;;;;9.78;58.14;94425.91;5014858;28;20035;-82
2023/04/15 01:46:44;;;;;;;11.07;4.60;;;;;;;10.06;58.76;94489.38;5014827;28;20037;-82
2023/04/15 01:49:09;;;;;;;12.13;4.22;;;;;;;9.58;59.58;94437.56;5014956;28;20033;-82
2023/04/15 01:51:35;;;;;;;10.52;4.22;;;;;;;10.09;59.47;94522.41;5028341;28;20603;-82
2023/04/15 01:54:00;;;;;;;8.80;3.70;;;;;;;9.52;59.31;94436.84;4995221;28;20078;-82
2023/04/15 01:56:26;;;;;;;7.40;3.55;;;;;;;9.61;59.74;94466.13;5012731;28;20038;-82
2023/04/15 01:58:51;;;;;;;8.68;4.35;;;;;;;9.94;59.57;94518.13;4997083;28;20042;-79
2023/04/15 02:01:18;;;;;;;11.25;4.45;;;;;;;9.64;59.64;94474.28;5009381;28;20060;-79
2023/04/15 02:03:45;;;;;;;10.10;4.30;;;;;;;9.57;60.07;94478.34;5038349;28;20042;-79
2023/04/15 02:06:11;;;;;;;9.82;3.95;;;;;;;9.95;60.20;94538.25;5026725;28;20447;-79
2023/04/15 02:08:36;;;;;;;11.68;4.07;;;;;;;9.79;60.67;94513.00;5013546;28;20044;-79
2023/04/15 02:11:02;;;;;;;12.75;4.45;;;;;;;9.74;60.59;94509.66;5038538;28;20037;-79
2023/04/15 02:13:27;;;;;;;8.65;4.20;;;;;;;9.60;60.93;94509.56;5038239;28;20504;-79
2023/04/15 02:15:54;;;;;;;9.43;4.78;;;;;;;9.47;61.37;94486.41;5039356;28;20029;-79
2023/04/15 02:18:20;;;;;;;13.57;5.07;;;;;;;9.38;60.91;94483.63;5020633;28;20033;-79
2023/04/15 02:20:46;;;;;;;10.63;5.00;;;;;;;9.37;60.87;94458.22;5019424;28;20032;-79
2023/04/15 02:23:11;;;;;;;12.60;4.93;;;;;;;9.49;60.76;94484.25;5002307;28;20052;-80
2023/04/15 02:25:40;;;;;;;7.10;4.30;;;;;;;9.82;60.48;94523.06;5020041;28;20037;-79
2023/04/15 02:28:06;;;;;;;12.70;5.55;;;;;;;9.37;61.12;94494.47;5038636;28;20029;-79
2023/04/15 02:30:32;;;;;;;11.50;5.63;;;;;;;9.42;60.81;94481.19;5020303;28;20052;-79
2023/04/15 02:33:00;;;;;;;19.27;6.28;;;;;;;9.55;60.39;94504.31;5038947;28;20091;-79
2023/04/15 02:35:26;;;;;;;19.00;8.10;;;;;;;8.68;61.04;94405.81;5021196;28;20034;-79
2023/04/15 02:37:52;;;;;;;14.40;7.75;;;;;;;9.00;61.06;94455.47;5038703;28;20037;-79
2023/04/15 02:40:17;;;;;;;20.27;7.45;;;;;;;9.38;60.43;94506.63;5038263;28;20034;-79
2023/04/15 02:42:43;;;;;;;16.98;7.05;;;;;;;8.79;60.89;94462.78;5019714;28;20187;-79
2023/04/15 02:45:11;;;;;;;15.80;7.00;;;;;;;8.41;61.08;94430.09;5020405;28;20057;-79
2023/04/15 02:47:38;;;;;;;14.80;6.78;;;;;;;8.23;61.36;94412.28;5017800;28;20044;-79
2023/04/15 02:50:04;;;;;;;14.27;7.88;;;;;;;8.90;61.15;94507.38;5034345;28;20034;-79
2023/04/15 02:52:30;;;;;;;12.77;6.75;;;;;;;8.17;62.44;94529.56;5020386;28;20116;-79
2023/04/15 02:54:59;;;;;;;14.88;7.35;;;;;;;8.05;62.80;94517.50;5018567;28;20123;-79
2023/04/15 02:57:26;;;;;;;13.10;7.22;;;;;;;8.01;62.23;94474.19;5019933;28;20034;-79
2023/04/15 02:59:52;;;;;;;15.48;6.80;;;;;;;8.43;61.89;94520.44;5034603;28;20037;-79
2023/04/15 03:02:17;;;;;;;12.15;6.15;;;;;;;8.58;61.14;94527.47;5000515;28;20535;-79
2023/04/15 03:04:43;;;;;;;12.70;6.60;;;;;;;8.32;61.02;94493.31;5000752;28;20028;-79
2023/04/15 03:07:08;;;;;;;16.08;6.43;;;;;;;8.69;60.33;94537.72;4999830;28;20063;-79
2023/04/15 03:09:33;;;;;;;14.25;6.10;;;;;;;8.39;59.39;94491.13;5000507;28;20097;-79
2023/04/15 03:11:59;;;;;;;8.93;5.15;;;;;;;8.51;58.40;94515.38;5009290;28;20025;-79
2023/04/15 03:14:24;;;;;;;12.85;5.82;;;;;;;8.64;58.02;94552.78;5020745;28;20040;-79
2023/04/15 03:16:50;;;;;;;12.18;5.47;;;;;;;8.36;57.72;94512.84;5020021;28;20040;-79
2023/04/15 03:19:16;;;;;;;13.40;5.35;;;;;;;8.42;57.66;94532.88;5038590;28;20033;-79
2023/04/15 03:21:41;;;;;;;8.70;4.65;;;;;;;8.16;57.31;94512.16;5037832;28;20049;-79
2023/04/15 03:24:07;;;;;;;9.98;5.75;;;;;;;7.96;56.99;94489.28;5020427;28;20140;-79
2023/04/15 03:26:32;;;;;;;11.25;5.68;;;;;;;7.83;57.19;94485.41;5020589;28;20029;-79
2023/04/15 03:28:58;;;;;;;12.40;5.15;;;;;;;8.28;57.64;94552.22;5020103;28;20033;-79
2023/04/15 03:31:23;;;;;;;16.05;5.22;;;;;;;8.11;57.56;94539.38;5020978;28;20033;-79
2023/04/15 03:33:49;;;;;;;10.38;5.32;;;;;;;7.85;57.75;94511.56;5000062;28;20424;-79
2023/04/15 03:36:15;;;;;;;9.00;5.00;;;;;;;8.11;57.43;94561.28;5017441;28;20041;-79
2023/04/15 03:38:41;;;;;;;18.90;5.93;;;;;;;7.59;58.56;94538.03;5018744;28;20030;-79
2023/04/15 03:41:06;;;;;;;10.98;5.60;;;;;;;7.13;61.15;94565.59;5008084;28;20116;-79
2023/04/15 03:43:32;;;;;;;10.43;4.88;;;;;;;7.27;60.51;94543.69;5024659;28;20025;-79
2023/04/15 03:45:57;;;;;;;11.10;5.40;;;;;;;7.58;60.14;94588.44;5039111;28;20036;-79
2023/04/15 03:48:23;;;;;;;12.43;6.10;;;;;;;7.23;60.94;94557.69;5019740;28;20040;-79
2023/04/15 03:50:48;;;;;;;13.45;6.68;;;;;;;7.21;60.86;94560.59;5038615;28;20025;-78
2023/04/15 03:53:14;;;;;;;16.17;5.95;;;;;;;7.67;60.00;94610.59;5008028;28;20056;-79
2023/04/15 03:55:40;;;;;;;9.95;5.03;;;;;;;7.13;59.48;94505.75;5030545;28;20033;-79
2023/04/15 03:58:05;;;;;;;9.82;5.22;;;;;;;7.55;59.88;94559.97;5006252;28;20056;-80
2023/04/15 04:00:31;;;;;;;10.20;5.78;;;;;;;7.87;59.83;94599.97;5032461;28;20446;-80
2023/04/15 04:02:57;;;;;;;11.88;6.20;;;;;;;7.84;59.67;94589.16;5019874;28;20121;-80
2023/04/15 04:05:22;;;;;;;12.48;5.85;;;;;;;7.99;59.38;94595.16;5019877;28;20044;-80
2023/04/15 04:07:48;;;;;;;14.50;6.75;;;;;;;7.22;59.28;94492.81;5037528;28;20413;-80
2023/04/15 04:10:13;;;;;;;13.45;6.15;;;;;;;8.05;59.66;94596.72;5017429;28;20042;-80
2023/04/15 04:12:39;;;;;;;11.57;5.55;;;;;;;7.93;59.81;94590.97;5005270;28;20499;-80
2023/04/15 04:15:05;;;;;;;13.75;5.70;;;;;;;7.80;59.69;94559.88;5020167;28;20030;-79
2023/04/15 04:17:31;;;;;;;16.63;5.40;;;;;;;7.93;59.82;94585.69;5038287;28;20064;-80
2023/04/15 04:19:56;;;;;;;14.25;6.05;;;;;;;7.98;60.24;94606.00;5038509;28;20388;-79
2023/04/15 04:22:25;;;;;;;11.45;5.88;;;;;;;7.53;60.08;94528.56;5029272;28;20516;-80
2023/04/15 04:24:50;;;;;;;12.70;6.43;;;;;;;8.01;60.21;94610.75;5011875;28;20033;-80
2023/04/15 04:27:16;;;;;;;10.98;5.10;;;;;;;7.94;60.65;94604.94;5039340;28;20419;-80
2023/04/15 04:29:42;;;;;;;10.35;6.30;;;;;;;7.93;60.84;94606.03;5020800;28;20341;-80
2023/04/15 04:32:07;;;;;;;14.27;6.03;;;;;;;7.69;60.40;94545.16;5008066;28;20034;-80
2023/04/15 04:34:33;;;;;;;15.50;6.22;;;;;;;7.79;60.46;94557.50;5020473;28;20034;-79
2023/04/15 04:36:58;;;;;;;13.85;5.93;;;;;;;7.99;60.65;94581.97;5023887;28;20042;-80
2023/04/15 04:39:24;;;;;;;10.68;6.15;;;;;;;7.90;60.32;94570.38;5006695;28;20026;-80
2023/04/15 04:41:51;;;;;;;19.27;7.68;;;;;;;8.04;60.38;94581.16;5010529;28;20040;-80
2023/04/15 04:44:17;;;;;;;12.93;6.75;;;;;;;7.49;60.50;94501.13;5010211;28;20117;-79
2023/04/15 04:46:42;;;;;;;13.18;5.68;;;;;;;7.66;60.38;94514.00;5013452;28;20425;-79
2023/04/15 04:49:07;;;;;;;19.05;7.15;;;;;;;8.37;60.49;94621.97;5033013;28;20033;-80
2023/04/15 04:51:33;;;;;;;15.65;6.75;;;;;;;8.03;60.27;94558.44;5049745;28;20663;-80
2023/04/15 04:53:59;;;;;;;17.17;7.35;;;;;;;8.17;59.93;94572.63;5028130;28;20045;-80
2023/04/15 04:56:24;;;;;;;16.55;7.50;;;;;;;7.99;60.22;94534.44;5025189;28;20025;-79
2023/04/15 04:58:50;;;;;;;16.80;8.25;;;;;;;8.46;59.64;94593.91;5024878;28;20033;-79
2023/04/15 05:01:16;;;;;;;20.70;8.60;;;;;;;8.54;59.38;94605.75;5032684;28;20030;-80
2023/04/15 05:03:41;;;;;;;22.17;8.85;;;;;;;8.43;59.70;94586.50;5014249;28;20033;-80
2023/04/15 05:06:07;;;;;;;16.02;8.15;;;;;;;8.85;59.54;94636.19;5023787;28;20025;-80
2023/04/15 05:08:33;;;;;;;32.08;9.52;;;;;;;8.00;59.44;94506.97;5023893;28;20037;-80
2023/04/15 05:10:58;;;;;;;20.30;9.40;;;;;;;8.13;59.55;94524.06;5022905;28;20041;-80
2023/04/15 05:13:24;;;;;;;22.73;9.45;;;;;;;8.96;58.66;94653.56;5040968;28;20056;-79
2023/04/15 05:15:50;;;;;;;17.17;8.18;;;;;;;8.48;58.64;94589.91;5025003;28;20041;-80
2023/04/15 05:18:15;;;;;;;23.70;9.57;;;;;;;8.70;58.12;94615.13;5042059;28;20136;-80
2023/04/15 05:20:41;;;;;;;17.15;8.10;;;;;;;8.90;58.10;94644.09;5002788;28;20040;-79
2023/04/15 05:23:06;;;;;;;17.42;6.97;;;;;;;8.86;57.55;94667.63;5005107;28;20022;-80
2023/04/15 05:25:32;;;;;;;17.45;6.20;;;;;;;8.37;56.91;94554.06;5022145;28;20029;-80
2023/04/15 05:27:58;;;;;;;19.48;8.15;;;;;;;8.68;56.70;94626.00;5039898;28;20030;-80
2023/04/15 05:30:23;;;;;;;20.35;7.57;;;;;;;8.96;56.81;94669.44;5022721;28;20029;-80
2023/04/15 05:32:49;;;;;;;18.40;6.55;;;;;;;9.04;57.04;94663.56;5022803;28;20038;-79
2023/04/15 05:35:14;;;;;;;19.98;7.18;;;;;;;8.90;57.03;94644.88;5039640;28;20036;-80
2023/04/15 05:37:39;;;;;;;10.77;5.63;;;;;;;9.05;56.58;94645.84;5023001;28;20025;-79
2023/04/15 05:40:05;;;;;;;15.27;6.78;;;;;;;8.61;57.14;94558.66;5022340;28;20416;-80
2023/04/15 05:42:31;;;;;;;17.05;6.85;;;;;;;9.31;57.08;94659.66;5022511;28;20055;-80
2023/04/15 05:44:57;;;;;;;12.00;6.82;;;;;;;9.10;56.44;94622.78;5026857;28;20052;-79
2023/04/15 05:47:22;;;;;;;15.82;6.68;;;;;;;9.26;56.44;94641.97;5015871;28;20029;-79
2023/04/15 05:49:48;;;;;;;14.48;6.88;;;;;;;9.20;56.26;94641.22;5021080;28;20037;-79
2023/04/15 05:52:13;;;;;;;19.88;6.93;;;;;;;9.24;56.39;94638.78;5021029;28;20033;-80
2023/04/15 05:54:38;;;;;;;16.67;7.88;;;;;;;9.46;56.28;94652.34;5022262;28;20041;-79
2023/04/15 05:57:04;;;;;;;19.17;7.00;;;;;;;8.82;56.32;94571.44;5001601;28;20581;-79
2023/04/15 05:59:29;;;;;;;20.15;6.32;;;;;;;9.15;56.64;94601.59;5000689;28;20038;-80
2023/04/15 06:01:55;;;;;;;16.40;7.32;;;;;;;9.45;56.85;94673.81;5000915;28;20098;-79
2023/04/15 06:04:21;;;;;;;12.52;6.68;;;;;;;9.16;57.12;94605.78;5019102;28;20030;-79
2023/04/15 06:06:47;;;;;;;23.33;7.55;;;;;;;9.67;57.04;94682.09;5004346;28;20073;-79
2023/04/15 06:09:12;;;;;;;13.18;7.43;;;;;;;9.11;56.74;94581.25;5020710;28;20044;-80
2023/04/15 06:11:37;;;;;;;13.90;6.88;;;;;;;9.35;56.45;94618.34;5020924;28;20025;-79
2023/04/15 06:14:03;;;;;;;15.98;7.53;;;;;;;9.69;57.08;94672.78;5038130;28;20029;-80
2023/04/15 06:16:28;;;;;;;17.33;7.47;;;;;;;9.50;57.04;94618.97;5021140;28;20514;-79
2023/04/15 06:18:54;;;;;;;14.82;6.95;;;;;;;9.92;56.81;94681.81;5020802;28;20049;-80
2023/04/15 06:21:19;;;;;;;14.07;7.43;;;;;;;9.91;56.97;94695.38;5009807;28;20034;-80
2023/04/15 06:23:45;;;;;;;16.63;7.95;;;;;;;9.94;57.22;94690.28;5000290;28;20408;-79
2023/04/15 06:26:10;;;;;;;13.88;6.57;;;;;;;9.99;57.38;94689.47;5012821;28;20409;-80
2023/04/15 06:28:36;;;;;;;13.60;7.05;;;;;;;9.72;56.58;94652.13;5037617;28;20044;-79
2023/04/15 06:31:02;;;;;;;12.70;7.18;;;;;;;10.02;56.06;94675.63;5005686;28;20033;-79
2023/04/15 06:33:28;;;;;;;16.08;6.93;;;;;;;9.69;56.16;94621.69;5001018;28;20456;-79
2023/04/15 06:35:53;;;;;;;19.83;6.55;;;;;;;9.41;56.04;94567.72;5017291;28;20048;-79
2023/04/15 06:38:18;;;;;;;13.48;5.97;;;;;;;10.31;55.64;94708.19;5020760;28;20072;-79
2023/04/15 06:40:45;;;;;;;17.98;7.07;;;;;;;9.97;55.90;94657.94;5001106;28;20045;-79
2023/04/15 06:43:11;;;;;;;14.30;7.25;;;;;;;9.84;55.28;94640.06;5038337;28;20037;-80
2023/04/15 06:45:37;;;;;;;11.75;6.50;;;;;;;10.00;56.10;94713.00;5038126;28;20456;-79
2023/04/15 06:48:02;;;;;;;9.98;5.47;;;;;;;9.52;55.40;94618.69;5017189;28;20077;-79
2023/04/15 06:50:28;;;;;;;12.13;5.28;;;;;;;9.12;55.86;94554.50;5005477;28;20034;-79
2023/04/15 06:52:55;;;;;;;13.07;5.40;;;;;;;10.16;55.04;94723.44;5013874;28;20042;-80
2023/04/15 06:55:20;;;;;;;11.85;5.28;;;;;;;10.12;55.23;94707.34;5017591;28;20030;-80
2023/04/15 06:57:45;;;;;;;15.43;5.03;;;;;;;10.35;54.69;94721.69;5026639;28;20063;-80
2023/04/15 07:00:11;;;;;;;17.40;5.35;;;;;;;10.45;54.36;94718.94;5020430;28;20033;-80
2023/04/15 07:02:37;;;;;;;13.90;5.72;;;;;;;10.22;54.66;94679.97;5037869;28;20043;-79
2023/04/15 07:05:03;;;;;;;10.93;5.80;;;;;;;10.53;54.04;94712.97;5037549;28;20033;-80
2023/04/15 07:07:29;;;;;;;10.68;5.70;;;;;;;10.08;54.47;94646.16;5019110;28;20076;-80
2023/04/15 07:09:55;;;;;;;15.23;5.47;;;;;;;10.38;54.30;94686.66;5019680;28;20037;-80
2023/04/15 07:12:20;;;;;;;13.70;5.30;;;;;;;10.32;54.45;94667.38;5020288;28;20033;-80
2023/04/15 07:14:46;;;;;;;13.93;5.95;;;;;;;10.68;53.84;94712.78;5000207;28;20046;-79
2023/04/15 07:17:12;;;;;;;17.77;5.75;;;;;;;10.00;54.34;94622.13;5017918;28;20045;-79
2023/04/15 07:19:37;;;;;;;14.23;5.55;;;;;;;10.33;53.76;94653.06;4999919;28;20425;-80
2023/04/15 07:22:02;;;;;;;22.27;6.13;;;;;;;10.80;53.59;94713.16;5037096;28;20037;-80
2023/04/15 07:24:28;;;;;;;12.95;5.38;;;;;;;10.44;53.28;94645.78;5020204;28;20041;-79
2023/04/15 07:26:56;;;;;;;14.40;5.82;;;;;;;10.85;54.05;94717.59;5037394;28;20057;-80
2023/04/15 07:29:22;;;;;;;13.50;5.50;;;;;;;10.87;55.06;94720.78;5020231;28;20048;-80
2023/04/15 07:31:47;;;;;;;11.52;6.00;;;;;;;10.75;54.81;94686.72;5019946;28;20030;-80
2023/04/15 07:34:13;;;;;;;14.73;5.10;;;;;;;10.91;54.51;94705.09;5029516;28;20033;-80
2023/04/15 07:36:39;;;;;;;16.38;6.07;;;;;;;11.03;54.19;94724.81;5009254;28;20038;-80
2023/04/15 07:39:04;;;;;;;10.80;5.60;;;;;;;10.93;54.49;94694.94;5037214;28;20045;-80
2023/04/15 07:41:30;;;;;;;12.32;5.40;;;;;;;10.96;54.32;94675.81;5036770;28;20045;-80
2023/04/15 07:43:56;;;;;;;15.43;5.72;;;;;;;11.15;54.17;94693.28;5014807;28;20033;-80
2023/04/15 07:46:23;;;;;;;15.20;5.93;;;;;;;11.10;53.20;94668.72;5000149;28;20057;-79
2023/04/15 07:48:49;;;;;;;13.52;5.72;;;;;;;11.18;52.88;94687.44;5000181;28;20117;-80
2023/04/15 07:51:16;;;;;;;11.63;5.53;;;;;;;11.26;52.72;94693.94;4999710;28;20516;-80
2023/04/15 07:53:42;;;;;;;17.10;5.38;;;;;;;11.54;53.02;94729.34;4999304;28;20132;-80
2023/04/15 07:56:07;;;;;;;20.30;6.32;;;;;;;11.52;53.44;94726.19;5018122;28;20379;-79
2023/04/15 07:58:33;;;;;;;14.48;6.53;;;;;;;11.45;53.13;94720.44;5017940;28;20038;-80
2023/04/15 08:00:58;;;;;;;10.80;5.40;;;;;;;11.47;53.37;94726.28;5017446;28;20045;-79
2023/04/15 08:03:24;;;;;;;11.50;5.40;;;;;;;11.47;52.30;94718.31;5017990;28;20037;-80
2023/04/15 08:05:49;;;;;;;8.98;5.32;;;;;;;11.40;52.25;94686.03;5003697;28;20563;-80
2023/04/15 08:08:15;;;;;;;12.65;4.97;;;;;;;11.68;51.87;94727.50;5018856;28;20045;-79
2023/04/15 08:10:41;;;;;;;14.30;5.47;;;;;;;11.68;51.10;94711.56;5018798;28;20025;-80
2023/04/15 08:13:06;;;;;;;9.60;4.55;;;;;;;11.27;50.02;94658.38;5036129;28;20041;-80
2023/04/15 08:15:32;;;;;;;13.52;4.90;;;;;;;11.81;50.50;94731.34;5018632;28;20049;-80
2023/04/15 08:17:59;;;;;;;11.18;4.82;;;;;;;11.68;50.90;94716.09;4990442;28;20097;-80
2023/04/15 08:20:25;;;;;;;10.05;4.57;;;;;;;11.38;49.53;94665.06;5030356;28;20049;-80
2023/04/15 08:22:51;;;;;;;10.00;4.13;;;;;;;11.70;48.54;94688.19;5019106;28;20033;-80
2023/04/15 08:25:17;;;;;;;9.48;3.95;;;;;;;12.07;49.08;94732.47;5023196;28;20067;-79
2023/04/15 08:27:43;;;;;;;8.32;3.70;;;;;;;12.20;48.99;94728.25;5040667;28;20073;-79
2023/04/15 08:30:09;;;;;;;13.90;5.13;;;;;;;11.83;50.72;94652.91;5039880;28;20044;-79
2023/04/15 08:32:34;;;;;;;14.10;6.75;;;;;;;12.22;52.16;94708.25;5021749;28;20034;-79
2023/04/15 08:35:00;;;;;;;12.88;5.97;;;;;;;12.16;52.99;94684.72;5036763;28;20416;-79
2023/04/15 08:37:26;;;;;;;15.43;7.03;;;;;;;12.47;52.41;94707.00;5007127;28;20033;-79
2023/04/15 08:39:51;;;;;;;16.40;6.50;;;;;;;12.29;51.30;94670.66;5023200;28;20071;-79
2023/04/15 08:42:22;;;;;;;12.85;5.47;;;;;;;12.25;50.47;94657.16;5022653;28;20056;-79
2023/04/15 08:44:48;;;;;;;9.77;4.82;;;;;;;12.79;50.53;94715.94;5040395;28;20132;-79
2023/04/15 08:47:17;;;;;;;13.32;5.00;;;;;;;12.64;50.20;94661.97;5029357;28;20527;-79
2023/04/15 08:49:43;;;;;;;14.35;4.95;;;;;;;12.74;50.83;94677.69;5002815;28;20046;-79
2023/04/15 08:52:08;;;;;;;9.73;4.47;;;;;;;12.35;49.13;94606.47;5003285;28;20049;-79
2023/04/15 08:54:35;;;;;;;7.88;3.75;;;;;;;13.07;48.94;94688.97;5020916;28;20030;-79
2023/04/15 08:57:01;;;;;;;12.40;3.63;;;;;;;12.95;45.61;94687.91;5003391;28;20492;-79
2023/04/15 08:59:29;;;;;;;6.85;3.83;;;;;;;13.32;45.96;94702.81;5002896;28;20041;-80
2023/04/15 09:01:57;;;;;;;7.90;3.83;;;;;;;13.02;47.59;94627.84;5004519;28;20053;-79
2023/04/15 09:04:22;;;;;;;11.43;4.25;;;;;;;13.42;45.96;94655.44;5022915;28;20034;-79
2023/04/15 09:06:48;;;;;;;9.25;4.20;;;;;;;13.66;47.51;94686.28;5040397;28;20566;-79
2023/04/15 09:09:13;;;;;;;10.07;3.10;;;;;;;13.73;46.01;94681.34;5023726;28;20105;-79
2023/04/15 09:11:39;;;;;;;8.70;2.70;;;;;;;13.75;44.19;94674.59;5024270;28;20044;-80
2023/04/15 09:14:04;;;;;;;7.25;3.22;;;;;;;13.81;44.56;94659.25;5023452;28;20040;-80
2023/04/15 09:16:30;;;;;;;10.63;2.92;;;;;;;14.11;43.06;94673.69;5031760;28;20500;-79
2023/04/15 09:18:56;;;;;;;13.05;3.30;;;;;;;14.12;42.95;94654.69;5002683;28;20044;-79
2023/04/15 09:21:22;;;;;;;6.55;2.83;;;;;;;14.40;44.32;94651.84;5011576;28;20041;-80
2023/04/15 09:23:58;;;;;;;6.70;2.55;;;;;;;14.58;43.71;94667.59;5039589;28;20120;-79
2023/04/15 09:26:39;;;;;;;8.27;3.55;;;;;;;14.14;42.20;94593.06;5027338;28;20116;-79
2023/04/15 09:29:06;;;;;;;7.28;3.22;;;;;;;14.82;41.54;94669.84;5001792;28;20046;-79
2023/04/15 09:31:32;;;;;;;7.75;2.35;;;;;;;14.38;41.73;94585.47;5001219;28;20038;-79
2023/04/15 09:33:57;;;;;;;7.53;2.53;;;;;;;14.91;40.73;94665.28;5001758;28;20145;-79
2023/04/15 09:36:24;;;;;;;6.47;2.38;;;;;;;14.71;41.22;94603.72;5021596;28;20041;-79
2023/04/15 09:38:59;;;;;;;6.38;2.75;;;;;;;15.14;40.72;94633.88;5021910;28;20416;-79
2023/04/15 09:41:26;;;;;;;5.53;2.70;;;;;;;15.13;38.77;94666.25;5039104;28;20029;-79
2023/04/15 09:43:52;;;;;;;5.15;2.53;;;;;;;14.78;39.24;94631.53;5021910;28;20072;-79
2023/04/15 09:46:17;;;;;;;10.55;2.42;;;;;;;15.07;38.75;94682.44;5032241;28;20113;-79
2023/04/15 09:48:43;;;;;;;8.43;2.72;;;;;;;14.62;39.26;94587.69;5023406;28;20037;-79
2023/04/15 09:51:08;;;;;;;5.95;2.53;;;;;;;15.46;40.73;94678.03;5013230;28;20029;-79
2023/04/15 09:53:37;;;;;;;7.45;2.60;;;;;;;15.70;38.25;94685.59;5021689;28;20061;-79
2023/04/15 09:56:02;;;;;;;6.75;1.92;;;;;;;15.36;37.38;94600.88;5026083;28;20042;-79
2023/04/15 09:58:30;;;;;;;4.50;1.95;;;;;;;15.43;36.54;94603.84;5001951;28;20149;-79
2023/04/15 10:00:57;;;;;;;3.35;1.63;;;;;;;15.51;36.30;94583.53;5020279;28;20033;-79
2023/04/15 10:03:28;;;;;;;7.28;2.28;;;;;;;16.03;36.26;94626.97;5001805;28;20037;-79
2023/04/15 10:05:56;;;;;;;4.63;2.15;;;;;;;16.53;35.98;94668.00;5020119;28;20385;-79
2023/04/15 10:08:31;;;;;;;7.07;2.10;;;;;;;16.71;35.70;94649.97;5038610;28;20053;-79
2023/04/15 10:10:57;;;;;;;5.43;2.00;;;;;;;16.48;35.04;94673.53;5036577;28;20049;-79
2023/04/15 10:13:25;;;;;;;4.80;2.05;;;;;;;16.65;34.51;94669.22;5037163;28;20036;-80
2023/04/15 10:15:54;;;;;;;5.07;2.00;;;;;;;17.00;34.04;94626.94;5016870;28;20033;-80
2023/04/15 10:18:22;;;;;;;8.98;1.98;;;;;;;17.07;33.21;94644.06;5017249;28;20038;-80
2023/04/15 10:20:47;;;;;;;4.20;2.10;;;;;;;17.74;33.42;94622.38;5015331;28;20538;-80
2023/04/15 10:23:14;;;;;;;4.82;1.85;;;;;;;18.27;32.41;94638.66;5004437;28;20026;-79
2023/04/15 10:25:40;;;;;;;5.38;1.77;;;;;;;18.93;31.28;94639.19;4996584;28;20156;-79
2023/04/15 10:28:07;;;;;;;9.35;1.92;;;;;;;18.89;30.26;94579.22;4996628;28;20026;-80
2023/04/15 10:30:33;;;;;;;7.20;2.28;;;;;;;19.67;30.09;94645.19;4996743;28;20029;-79
2023/04/15 10:33:02;;;;;;;4.80;1.83;;;;;;;19.59;29.22;94609.25;4996905;28;20424;-79
2023/04/15 10:35:33;;;;;;;6.15;1.77;;;;;;;19.81;28.59;94602.50;5031826;28;20037;-80
2023/04/15 10:37:58;;;;;;;9.82;1.83;;;;;;;19.70;28.66;94607.59;5034541;28;20544;-80
2023/04/15 10:40:32;;;;;;;7.45;1.73;;;;;;;19.91;28.06;94613.53;5016306;28;20025;-80
2023/04/15 10:43:01;;;;;;;6.20;1.67;;;;;;;19.88;27.81;94598.09;5015904;28;20033;-80
2023/04/15 10:45:36;;;;;;;7.07;1.65;;;;;;;20.08;27.35;94628.56;5015495;28;20022;-80
2023/04/15 10:48:05;;;;;;;8.50;1.73;;;;;;;20.02;27.32;94606.53;5016245;28;20098;-79
2023/04/15 10:50:32;;;;;;;4.53;1.80;;;;;;;20.46;27.06;94632.59;5015787;28;20067;-80
2023/04/15 10:52:58;;;;;;;6.43;2.17;;;;;;;20.36;27.77;94640.09;5016144;28;20040;-80
2023/04/15 10:55:30;;;;;;;4.72;1.88;;;;;;;20.51;27.86;94629.66;5015618;28;20492;-81
2023/04/15 10:58:00;;;;;;;5.45;2.42;;;;;;;20.44;27.58;94632.19;5015777;28;20041;-80
2023/04/15 11:00:31;;;;;;;4.13;1.73;;;;;;;19.94;27.48;94593.22;5015463;28;20318;-80
2023/04/15 11:03:07;;;;;;;5.25;2.13;;;;;;;19.67;27.84;94637.91;5012832;28;20046;-80
2023/04/15 11:05:49;;;;;;;6.60;1.67;;;;;;;19.63;27.98;94592.06;5001192;28;20040;-80
2023/04/15 11:08:15;;;;;;;;;;;;;;;19.88;27.90;94622.31;5015692;28;20440;-80
2023/04/15 11:10:40;;;;;;;4.57;1.67;;;;;;;19.79;28.96;94635.13;5033455;28;20395;-80
2023/04/15 11:13:12;;;;;;;6.00;1.40;;;;;;;19.87;29.86;94631.50;5015170;28;20037;-79
2023/04/15 11:15:39;;;;;;;;;;;;;;;19.87;29.29;94622.66;5033815;28;20040;-80
2023/04/15 11:18:21;;;;;;;5.45;1.60;;;;;;;20.00;28.77;94630.31;5033329;28;19917;-80
2023/04/15 11:20:51;;;;;;;7.93;1.92;;;;;;;20.44;28.12;94621.41;5015333;28;20111;-80
2023/04/15 11:23:27;;;;;;;3.92;1.30;;;;;;;20.58;27.56;94586.72;5015345;28;20522;-80
2023/04/15 11:25:55;;;;;;;2.67;1.27;;;;;;;20.36;28.47;94526.22;5015232;28;20033;-80
2023/04/15 11:28:25;;;;;;;6.88;1.85;;;;;;;20.75;28.45;94562.09;5014863;28;20037;-80